Terminal Aerodrome Forecast
Issued by NWS Topeka, KS

Home | Current Version | Previous Version | Graphics & Text | Print | Product List | Glossary On
Versions: 1 2 3 4 5 6 7 8 9 10 11 12 13 14 15 16 17 18 19 20 21 22 23 24 25 26 27 28 29 30 31 32 33 34
000
FTUS43 KTOP 311100
TAFTOP
TAF
KTOP 311134Z 3112/0112 18005KT P6SM SCT120
     FM311600 18007G16KT P6SM VCTS BKN100CB
     FM311800 18016G26KT P6SM FEW050
     FM010400 17013G22KT 4SM TSRA BKN050CB
     FM010900 36006KT P6SM SCT150=

USA.gov is the U.S. government's official web portal to all federal, state and local government web resources and services.